Detalhes do Voo

Voltar

 DETALHES DO VÔO

Piloto: GLD1443 Marcos C. Aeronave: Diamond Distância: 258NM
Origem: SSXN Destino: SJHG Duração: 1.88
Validação: Validado Tipo: Charter Matrícula: PT-GLD
ZFW: 4017 Block Fuel/Init FOB 95/32 Combustível em Voo 95
Passageiros: 2 Carga: 30 Alternativo: SDLX
Hora da Decolagem: 2000 Velocidade de Cruzeiro: 0168 Nível de Voo: F095
Regra Visual: VFR ICAO da Aeronave: DA62 Unidade de Peso: Kg
Data: 16/09/2025 Observação: GOLD ACARS Rede: IVAO
Acidentou?: Não Comentários do Validador: Pontuação do Voo 90.75

 ROTA

ROTA 1009S05224W
REMARKS OPR/GOLD VIRTUAL AIRLINES PER/A RMK/FROM SWFN RMK/PIC GLD1443 RMK/BRTOURS25

 PENALIDADES DO VOO

Para entender como cada item é pontuado, consulte as regras de avaliação.

Nenhuma penalidade registrada para este voo.

 ANÁLISE DO POUSO

Vento durante o pouso: 353º/1 kt Proa durante o pouso: 105
V/S do Pouso: -4 ft/min IAS do Pouso: 58 kt
Força G no pouso: 1.0112 G Bank no pouso: -0.14
Pitch no Pouso -0.33 Flaps no Pouso 0
Nav Lights ON Landing Lights ON
Beacon Lights ON Strobe Lights ON

 MAPA DO VOO

 PERFIL VERTICAL DO VOO

 EVENTOS PRINCIPAIS DO VOO

DATAEVENTOIASALTITUDE
2025-09-16 20:00:38 GOLD ACARS VERSION 3.3.6.500
2025-09-16 20:00:38 BCN LIGHTS ON00
2025-09-16 20:00:38 BOARDING0919
2025-09-16 20:00:38 LITTLENAVMAP ON0919
2025-09-16 20:01:59 NAV LIGHTS ON0919
2025-09-16 20:02:33 STARTING ENGINE 10919
2025-09-16 20:02:41 STARTING ENGINE 20919
2025-09-16 20:05:16 FLAP 50%0835
2025-09-16 20:06:34 TAXI TO THE RWY3835
2025-09-16 20:06:34 TAXING WITH TAXI LIGHTS OFF3835
2025-09-16 20:06:43 TAXI LIGHTS ON11833
2025-09-16 20:06:44 STB LIGHTS ON11833
2025-09-16 20:06:48 TAXI LIGHTS OFF11832
2025-09-16 20:10:45 CLIMBING84819
2025-09-16 20:10:51 GEAR UP86905
2025-09-16 20:11:15 FLAP 0%781398
2025-09-16 20:12:54 AP ENGAGED1203432
2025-09-16 20:19:19 CRUISE1409488
2025-09-16 21:00:24 DESCEND1449506
2025-09-16 21:19:18 CLIMBING1479498
2025-09-16 21:19:19 CRUISE1449510
2025-09-16 21:24:01 CLIMBING1449504
2025-09-16 21:24:02 CRUISE1449514
2025-09-16 21:30:54 DESCEND1449564
2025-09-16 21:47:44 GEAR DOWN1112050
2025-09-16 21:48:26 FLAP 50%881789
2025-09-16 21:48:54 AP DISENGAGED971804
2025-09-16 21:49:39 FLAP 100%1001385
2025-09-16 21:51:07 FLAP 0%58821
2025-09-16 21:51:07 LANDED - VS: -4 ft/min57821
2025-09-16 21:51:13 TAXI TO THE GATE26825
2025-09-16 21:51:34 TAXI LIGHTS ON10830
2025-09-16 21:52:01 AT THE GATE0833
2025-09-16 21:52:04 STB LIGHTS OFF0833
2025-09-16 21:52:05 LND LIGHTS OFF0833
2025-09-16 21:52:28 STOPPING ENGINE 10833
2025-09-16 21:52:28 STOPPING ENGINE 20833
2025-09-16 21:52:34 TAXI LIGHTS OFF0833
2025-09-16 21:52:41 FLIGHT FINISHED0833
2025-09-16 21:53:07 LANDED NOT IN THE PLANNED AIRPORT [SJHG] - [lat: -10,6346640377195] - [long: -51,5633109691694]0833
2025-09-16 21:53:07 FLIGHT FINISHED0833
2025-09-16 21:53:14 LANDED NOT IN THE PLANNED AIRPORT [SJHG] - [lat: -10,6346640377195] - [long: -51,5633109691694]0833
2025-09-16 21:53:14 FLIGHT FINISHED0833
2025-09-16 21:53:30 LANDED NOT IN THE PLANNED AIRPORT [SJHG] - [lat: -10,6346640377195] - [long: -51,5633109691694]0833
2025-09-16 21:53:31 FLIGHT FINISHED0833

 DADOS DO ACARS

DATA IAS GS ALTITUDE COMBUSTÍVEL USADO OAT FASE DO VOO
2025-09-16 20:02:38 0 0 919 0 28 BOARDING
2025-09-16 20:03:39 0 0 920 0 27 BOARDING
2025-09-16 20:04:40 0 0 920 0 27 BOARDING
2025-09-16 20:05:41 0 0 835 0 27 BOARDING
2025-09-16 20:06:41 11 12 833 0 27 BOARDING
2025-09-16 20:07:42 15 15 807 0 27 TAXI TO THE RWY
2025-09-16 20:08:43 17 18 783 0 28 TAXI TO THE RWY
2025-09-16 20:09:44 0 0 781 0 28 TAXI TO THE RWY
2025-09-16 20:10:44 83 87 814 0 27 TAXI TO THE RWY
2025-09-16 20:11:45 95 99 1924 1 27 TAXI TO THE RWY
2025-09-16 20:12:46 112 121 3300 2 24 CLIMBING
2025-09-16 20:13:46 143 155 4194 3 22 CLIMBING
2025-09-16 20:14:47 147 160 5175 3 19 CLIMBING
2025-09-16 20:15:47 137 149 6129 4 16 CLIMBING
2025-09-16 20:16:48 138 152 7078 5 14 CLIMBING
2025-09-16 20:17:49 137 152 8033 6 12 CLIMBING
2025-09-16 20:18:49 139 155 9028 7 10 CLIMBING
2025-09-16 20:19:49 157 177 9511 8 9 CLIMBING
2025-09-16 20:20:50 165 187 9509 9 9 CRUISE
2025-09-16 20:21:51 145 163 9493 9 9 CRUISE
2025-09-16 20:22:51 141 158 9491 10 9 CRUISE
2025-09-16 20:23:52 138 155 9492 11 9 CRUISE
2025-09-16 20:24:52 138 155 9495 11 9 CRUISE
2025-09-16 20:25:52 140 157 9499 12 9 CRUISE
2025-09-16 20:26:52 142 159 9501 12 9 CRUISE
2025-09-16 20:27:54 143 160 9505 13 9 CRUISE
2025-09-16 20:28:54 143 160 9505 14 9 CRUISE
2025-09-16 20:29:55 142 160 9506 14 9 CRUISE
2025-09-16 20:30:55 143 160 9505 15 9 CRUISE
2025-09-16 20:31:56 143 160 9505 16 9 CRUISE
2025-09-16 20:32:57 141 157 9503 16 9 CRUISE
2025-09-16 20:33:58 142 159 9503 17 9 CRUISE
2025-09-16 20:34:59 143 160 9506 18 9 CRUISE
2025-09-16 20:36:00 143 159 9506 18 9 CRUISE
2025-09-16 20:37:00 143 159 9506 19 9 CRUISE
2025-09-16 20:38:01 143 159 9507 19 9 CRUISE
2025-09-16 20:39:03 143 160 9507 20 9 CRUISE
2025-09-16 20:40:14 143 159 9507 21 9 CRUISE
2025-09-16 20:41:25 143 159 9508 21 9 CRUISE
2025-09-16 20:42:38 143 159 9507 22 9 CRUISE
2025-09-16 20:43:55 144 158 9507 23 9 CRUISE
2025-09-16 20:45:50 143 158 9505 24 9 CRUISE
2025-09-16 20:47:07 143 158 9508 25 9 CRUISE
2025-09-16 20:48:09 143 158 9507 26 9 CRUISE
2025-09-16 20:49:11 144 159 9503 26 9 CRUISE
2025-09-16 20:50:11 143 157 9503 27 9 CRUISE
2025-09-16 20:51:11 143 157 9501 28 9 CRUISE
2025-09-16 20:52:12 143 157 9502 28 9 CRUISE
2025-09-16 20:53:12 143 156 9502 29 9 CRUISE
2025-09-16 20:54:12 143 156 9502 29 9 CRUISE
2025-09-16 20:55:12 143 156 9500 30 9 CRUISE
2025-09-16 20:56:13 143 156 9502 31 9 CRUISE
2025-09-16 20:57:13 143 155 9501 31 9 CRUISE
2025-09-16 20:58:13 143 156 9503 32 9 CRUISE
2025-09-16 20:59:14 143 155 9500 33 9 CRUISE
2025-09-16 21:00:14 143 155 9500 33 9 CRUISE
2025-09-16 21:01:18 143 155 9496 34 9 CRUISE
2025-09-16 21:02:19 143 155 9498 35 9 DESCEND
2025-09-16 21:03:19 143 155 9492 35 9 DESCEND
2025-09-16 21:04:20 143 155 9505 36 9 DESCEND
2025-09-16 21:05:20 142 155 9506 36 9 DESCEND
2025-09-16 21:06:20 143 156 9505 37 9 DESCEND
2025-09-16 21:07:21 143 156 9503 38 9 DESCEND
2025-09-16 21:08:21 143 156 9505 38 9 DESCEND
2025-09-16 21:09:21 143 156 9506 39 9 DESCEND
2025-09-16 21:10:22 143 156 9504 40 9 DESCEND
2025-09-16 21:11:22 143 156 9505 40 9 DESCEND
2025-09-16 21:12:23 143 156 9505 41 9 DESCEND
2025-09-16 21:13:25 148 161 9502 41 9 DESCEND
2025-09-16 21:14:25 146 159 9491 42 9 DESCEND
2025-09-16 21:15:26 143 156 9491 43 9 DESCEND
2025-09-16 21:16:27 144 157 9492 43 9 DESCEND
2025-09-16 21:17:30 143 156 9492 44 9 DESCEND
2025-09-16 21:18:31 143 156 9492 45 9 DESCEND
2025-09-16 21:19:32 145 158 9499 45 9 DESCEND
2025-09-16 21:20:33 144 156 9497 46 9 CRUISE
2025-09-16 21:21:33 143 155 9493 47 9 CRUISE
2025-09-16 21:22:38 143 155 9493 47 9 CRUISE
2025-09-16 21:23:38 143 155 9493 48 9 CRUISE
2025-09-16 21:24:40 150 163 9499 49 9 CRUISE
2025-09-16 21:25:40 147 159 9491 49 9 CRUISE
2025-09-16 21:26:40 144 155 9493 50 9 CRUISE
2025-09-16 21:27:41 148 160 9503 50 9 CRUISE
2025-09-16 21:28:42 145 156 9493 51 10 CRUISE
2025-09-16 21:29:43 146 157 9498 52 10 CRUISE
2025-09-16 21:30:43 144 154 9492 52 10 CRUISE
2025-09-16 21:31:44 144 154 9507 53 10 CRUISE
2025-09-16 21:32:44 146 157 9507 54 10 DESCEND
2025-09-16 21:33:45 145 156 9509 54 10 DESCEND
2025-09-16 21:34:46 144 154 9497 55 10 DESCEND
2025-09-16 21:35:47 151 161 9510 55 10 DESCEND
2025-09-16 21:36:49 147 157 8887 56 11 DESCEND
2025-09-16 21:37:49 152 161 8310 56 13 DESCEND
2025-09-16 21:38:50 155 165 7735 57 14 DESCEND
2025-09-16 21:39:50 154 164 7164 57 15 DESCEND
2025-09-16 21:40:51 153 162 6593 58 17 DESCEND
2025-09-16 21:41:52 154 162 6020 58 18 DESCEND
2025-09-16 21:42:52 157 166 5448 59 20 DESCEND
2025-09-16 21:43:52 152 159 4762 59 22 DESCEND
2025-09-16 21:44:53 138 143 3873 59 25 DESCEND
2025-09-16 21:45:53 138 145 3131 60 27 DESCEND
2025-09-16 21:46:54 139 147 2570 60 28 DESCEND
2025-09-16 21:47:55 109 115 1950 60 29 DESCEND
2025-09-16 21:48:56 98 105 1803 61 28 DESCEND
2025-09-16 21:49:57 89 93 1192 61 26 DESCEND
2025-09-16 21:52:41 0 0 833 62 27 DESCEND
2025-09-16 21:52:41 0 0 833 62 27 DESCEND